createdAt,value
2023-12-02T00:00:21.286Z,51.185791
2023-12-02T00:01:20.903Z,51.185795
2023-12-02T00:02:20.912Z,51.185783
2023-12-02T00:03:20.937Z,51.185795
2023-12-02T00:04:20.928Z,51.185791
2023-12-02T00:05:20.979Z,51.185833
2023-12-02T00:06:20.892Z,51.185825
2023-12-02T00:07:20.863Z,51.185829
2023-12-02T00:08:20.861Z,51.185848
2023-12-02T00:09:20.890Z,51.185814
2023-12-02T00:10:20.931Z,51.185825
2023-12-02T00:11:20.859Z,51.185802
2023-12-02T00:12:20.857Z,51.185837
2023-12-02T00:13:20.829Z,51.185772
2023-12-02T00:14:20.822Z,51.185795
2023-12-02T00:15:20.868Z,51.185806
2023-12-02T00:16:20.853Z,51.185799
2023-12-02T00:17:20.812Z,51.185787
2023-12-02T00:18:21.056Z,51.185806
2023-12-02T00:19:20.891Z,51.185841
2023-12-02T00:20:20.830Z,51.185825
2023-12-02T00:21:20.820Z,51.185837
2023-12-02T00:22:20.780Z,51.185825
2023-12-02T00:23:20.769Z,51.185810
2023-12-02T00:24:20.801Z,51.185764
2023-12-02T00:25:20.754Z,51.185799
2023-12-02T00:26:20.787Z,51.185848
2023-12-02T00:27:20.809Z,51.185883
2023-12-02T00:28:20.752Z,51.185860
2023-12-02T00:29:20.746Z,51.185837
2023-12-02T00:30:20.758Z,51.185783
2023-12-02T00:31:20.723Z,51.185802
2023-12-02T00:32:28.597Z,51.185787
2023-12-02T00:33:21.824Z,51.185818
2023-12-02T00:34:20.766Z,51.185829
2023-12-02T00:35:20.695Z,51.185806
2023-12-02T00:36:20.724Z,51.185753
2023-12-02T00:37:20.679Z,51.185822
2023-12-02T00:38:20.694Z,51.185810
2023-12-02T00:39:20.741Z,51.185791
2023-12-02T00:40:20.673Z,51.185772
2023-12-02T00:41:20.682Z,51.185780
2023-12-02T00:42:20.754Z,51.185780
2023-12-02T00:43:20.685Z,51.185814
2023-12-02T00:44:20.647Z,51.185791
2023-12-02T00:45:20.673Z,51.185741
2023-12-02T00:46:20.638Z,51.185886
2023-12-02T00:47:20.654Z,51.185814
2023-12-02T00:48:20.714Z,51.185783
2023-12-02T00:49:20.744Z,51.186047
2023-12-02T00:50:20.619Z,51.185902
2023-12-02T00:51:20.657Z,51.185909
2023-12-02T00:52:20.641Z,51.185844
2023-12-02T00:53:20.642Z,51.185825
2023-12-02T00:54:20.649Z,51.185810
2023-12-02T00:55:20.743Z,51.185787
2023-12-02T00:56:20.588Z,51.185829
2023-12-02T00:57:20.649Z,51.185783
2023-12-02T00:58:27.615Z,51.185802
2023-12-02T00:59:21.604Z,51.185833
2023-12-02T01:00:20.610Z,51.185780
2023-12-02T01:01:20.565Z,51.185837
2023-12-02T01:02:20.548Z,51.185802
2023-12-02T01:03:20.618Z,51.185844
2023-12-02T01:04:20.559Z,51.185822
2023-12-02T01:05:20.624Z,51.185795
2023-12-02T01:06:20.556Z,51.185806
2023-12-02T01:07:20.561Z,51.185844
2023-12-02T01:08:20.527Z,51.185829
2023-12-02T01:09:20.547Z,51.185829
2023-12-02T01:10:20.546Z,51.185799
2023-12-02T01:11:20.520Z,51.185791
2023-12-02T01:12:20.601Z,51.185799
2023-12-02T01:13:20.499Z,51.185791
2023-12-02T01:14:20.551Z,51.185791
2023-12-02T01:15:20.501Z,51.185822
2023-12-02T01:16:20.518Z,51.185883
2023-12-02T01:17:20.615Z,51.185814
2023-12-02T01:18:20.484Z,51.185837
2023-12-02T01:19:20.541Z,51.185814
2023-12-02T01:20:20.483Z,51.185837
2023-12-02T01:21:20.484Z,51.185886
2023-12-02T01:22:20.475Z,51.185829
2023-12-02T01:23:20.446Z,51.185818
2023-12-02T01:24:20.484Z,51.185791
2023-12-02T01:25:20.429Z,51.185757
2023-12-02T01:26:20.492Z,51.185719
2023-12-02T01:27:20.434Z,51.185783
2023-12-02T01:28:20.466Z,51.185780
2023-12-02T01:29:20.403Z,51.185768
2023-12-02T01:30:20.473Z,51.185818
2023-12-02T01:31:20.403Z,51.185818
2023-12-02T01:32:20.382Z,51.185810
2023-12-02T01:33:20.525Z,51.185799
2023-12-02T01:34:20.457Z,51.185837
2023-12-02T01:35:20.372Z,51.185810
2023-12-02T01:36:20.399Z,51.185799
2023-12-02T01:37:20.364Z,51.185810
2023-12-02T01:38:20.390Z,51.185799
2023-12-02T01:39:20.391Z,51.185783
2023-12-02T01:40:20.369Z,51.185780
2023-12-02T01:41:20.337Z,51.185799
2023-12-02T01:42:20.412Z,51.185818
2023-12-02T01:43:20.332Z,51.185806
2023-12-02T01:44:20.345Z,51.185844
2023-12-02T01:45:20.370Z,51.185829
2023-12-02T01:46:20.336Z,51.185852
2023-12-02T01:47:20.314Z,51.185806
2023-12-02T01:48:20.408Z,51.185867
2023-12-02T01:49:20.351Z,51.185886
2023-12-02T01:50:20.379Z,51.185856
2023-12-02T01:51:20.303Z,51.185879
2023-12-02T01:52:20.284Z,51.185856
2023-12-02T01:53:20.283Z,51.185822
2023-12-02T01:54:20.346Z,51.185822
2023-12-02T01:55:20.324Z,51.185814
2023-12-02T01:56:20.371Z,51.185833
2023-12-02T01:57:20.296Z,51.185814
2023-12-02T01:58:20.248Z,51.185829
2023-12-02T01:59:20.274Z,51.185844
2023-12-02T02:00:20.288Z,51.185829
2023-12-02T02:01:20.229Z,51.185825
2023-12-02T02:02:20.247Z,51.185863
2023-12-02T02:03:20.320Z,51.185802
2023-12-02T02:04:20.345Z,51.185783
2023-12-02T02:05:20.247Z,51.185772
2023-12-02T02:06:20.232Z,51.185848
2023-12-02T02:07:20.207Z,51.185841
2023-12-02T02:08:20.180Z,51.185783
2023-12-02T02:09:20.234Z,51.185818
2023-12-02T02:10:20.198Z,51.185818
2023-12-02T02:11:20.188Z,51.185810
2023-12-02T02:12:20.237Z,51.185787
2023-12-02T02:13:20.158Z,51.185829
2023-12-02T02:14:20.266Z,51.185814
2023-12-02T02:15:20.715Z,51.185837
2023-12-02T02:16:20.158Z,51.185787
2023-12-02T02:17:20.135Z,51.185822
2023-12-02T02:18:20.343Z,51.185848
2023-12-02T02:19:20.298Z,51.185829
2023-12-02T02:20:20.122Z,51.185814
2023-12-02T02:21:20.317Z,51.185837
2023-12-02T02:22:20.119Z,51.185783
2023-12-02T02:23:20.108Z,51.185730
2023-12-02T02:24:20.116Z,51.185772
2023-12-02T02:25:20.103Z,51.185722
2023-12-02T02:26:20.085Z,51.185749
2023-12-02T02:27:20.154Z,51.185799
2023-12-02T02:28:20.079Z,51.185852
2023-12-02T02:29:20.073Z,51.185722
2023-12-02T02:30:20.130Z,51.185814
2023-12-02T02:31:20.057Z,51.185879
2023-12-02T02:32:20.069Z,51.185852
2023-12-02T02:33:20.116Z,51.185833
2023-12-02T02:34:20.154Z,51.185814
2023-12-02T02:35:20.121Z,51.185833
2023-12-02T02:36:20.111Z,51.185787
2023-12-02T02:37:20.023Z,51.185703
2023-12-02T02:38:20.043Z,51.185772
2023-12-02T02:39:20.063Z,51.185783
2023-12-02T02:40:20.024Z,51.185841
2023-12-02T02:41:20.013Z,51.185703
2023-12-02T02:42:20.018Z,51.185795
2023-12-02T02:43:20.025Z,51.185833
2023-12-02T02:44:20.042Z,51.185833
2023-12-02T02:45:20.045Z,51.185802
2023-12-02T02:46:19.997Z,51.185799
2023-12-02T02:47:19.981Z,51.185791
2023-12-02T02:48:20.070Z,51.185787
2023-12-02T02:49:20.119Z,51.185795
2023-12-02T02:50:19.979Z,51.185818
2023-12-02T02:51:20.016Z,51.185802
2023-12-02T02:52:19.933Z,51.185818
2023-12-02T02:53:19.936Z,51.185810
2023-12-02T02:54:20.027Z,51.185791
2023-12-02T02:55:19.949Z,51.185799
2023-12-02T02:56:19.988Z,51.185825
2023-12-02T02:57:19.970Z,51.185814
2023-12-02T02:58:19.913Z,51.185852
2023-12-02T02:59:19.905Z,51.185905
2023-12-02T03:00:20.030Z,51.185860
2023-12-02T03:01:19.896Z,51.185818
2023-12-02T03:02:19.891Z,51.185810
2023-12-02T03:03:19.906Z,51.185814
2023-12-02T03:04:20.125Z,51.185780
2023-12-02T03:05:19.898Z,51.185825
2023-12-02T03:06:19.929Z,51.185833
2023-12-02T03:07:19.915Z,51.185791
2023-12-02T03:08:19.852Z,51.185802
2023-12-02T03:09:19.888Z,51.185837
2023-12-02T03:10:19.850Z,51.185825
2023-12-02T03:11:19.868Z,51.185780
2023-12-02T03:12:19.850Z,51.185783
2023-12-02T03:13:19.834Z,51.185810
2023-12-02T03:14:19.833Z,51.185833
2023-12-02T03:15:19.870Z,51.185841
2023-12-02T03:16:19.872Z,51.185844
2023-12-02T03:17:19.815Z,51.185871
2023-12-02T03:18:19.890Z,51.185902
2023-12-02T03:19:19.937Z,51.185871
2023-12-02T03:20:19.809Z,51.185875
2023-12-02T03:21:19.793Z,51.185738
2023-12-02T03:22:19.831Z,51.185841
2023-12-02T03:23:19.791Z,51.185852
2023-12-02T03:24:19.900Z,51.185844
2023-12-02T03:25:19.803Z,51.185825
2023-12-02T03:26:19.764Z,51.185795
2023-12-02T03:27:19.829Z,51.185768
2023-12-02T03:28:19.759Z,51.185818
2023-12-02T03:29:19.741Z,51.185856
2023-12-02T03:30:19.752Z,51.185806
2023-12-02T03:31:19.739Z,51.185757
2023-12-02T03:32:19.767Z,51.185810
2023-12-02T03:33:19.775Z,51.185822
2023-12-02T03:34:19.789Z,51.185825
2023-12-02T03:35:19.702Z,51.185787
2023-12-02T03:36:19.717Z,51.185776
2023-12-02T03:37:19.690Z,51.185837
2023-12-02T03:38:19.774Z,51.185810
2023-12-02T03:39:19.818Z,51.185890
2023-12-02T03:40:19.679Z,51.185879
2023-12-02T03:41:19.668Z,51.185829
2023-12-02T03:42:19.696Z,51.185814
2023-12-02T03:43:19.661Z,51.185829
2023-12-02T03:44:19.719Z,51.185791
2023-12-02T03:45:19.669Z,51.185734
2023-12-02T03:46:19.663Z,51.185810
2023-12-02T03:47:19.645Z,51.185841
2023-12-02T03:48:19.680Z,51.185928
2023-12-02T03:49:19.858Z,51.185879
2023-12-02T03:50:19.672Z,51.185852
2023-12-02T03:51:19.683Z,51.185822
2023-12-02T03:52:19.601Z,51.185856
2023-12-02T03:53:19.637Z,51.185814
2023-12-02T03:54:19.697Z,51.185772
2023-12-02T03:55:19.728Z,51.185802
2023-12-02T03:56:19.579Z,51.185795
2023-12-02T03:57:19.658Z,51.185806
2023-12-02T03:58:19.579Z,51.185802
2023-12-02T03:59:19.581Z,51.185814
2023-12-02T04:00:19.597Z,51.185795
2023-12-02T04:01:19.554Z,51.185814
2023-12-02T04:02:19.591Z,51.185818
2023-12-02T04:03:19.563Z,51.185822
2023-12-02T04:04:19.617Z,51.185818
2023-12-02T04:05:19.540Z,51.185799
2023-12-02T04:06:19.591Z,51.185844
2023-12-02T04:07:19.560Z,51.185837
2023-12-02T04:08:19.549Z,51.185787
2023-12-02T04:09:19.636Z,51.185760
2023-12-02T04:10:19.539Z,51.185738
2023-12-02T04:11:19.554Z,51.185753
2023-12-02T04:12:19.560Z,51.185814
2023-12-02T04:13:19.482Z,51.185818
2023-12-02T04:14:19.478Z,51.185772
2023-12-02T04:15:19.517Z,51.185791
2023-12-02T04:16:19.461Z,51.185802
2023-12-02T04:17:19.747Z,51.185760
2023-12-02T04:18:19.519Z,51.185764
2023-12-02T04:19:19.513Z,51.185757
2023-12-02T04:20:19.442Z,51.185799
2023-12-02T04:21:19.511Z,51.185783
2023-12-02T04:22:19.430Z,51.185780
2023-12-02T04:23:19.650Z,51.185795
2023-12-02T04:24:19.465Z,51.185783
2023-12-02T04:25:19.413Z,51.185844
2023-12-02T04:26:19.445Z,51.185818
2023-12-02T04:27:19.469Z,51.185791
2023-12-02T04:28:19.411Z,51.185810
2023-12-02T04:29:19.427Z,51.185825
2023-12-02T04:30:19.442Z,51.185806
2023-12-02T04:31:19.373Z,51.185844
2023-12-02T04:32:19.377Z,51.185802
2023-12-02T04:33:19.610Z,51.185822
2023-12-02T04:34:19.468Z,51.185844
2023-12-02T04:35:19.363Z,51.185776
2023-12-02T04:36:19.420Z,51.185822
2023-12-02T04:37:19.351Z,51.185814
2023-12-02T04:38:19.359Z,51.185886
2023-12-02T04:39:19.373Z,51.185760
2023-12-02T04:40:19.404Z,51.185795
2023-12-02T04:41:19.336Z,51.185795
2023-12-02T04:42:19.413Z,51.185848
2023-12-02T04:43:19.327Z,51.185844
2023-12-02T04:44:19.315Z,51.185802
2023-12-02T04:45:19.347Z,51.185867
2023-12-02T04:46:19.334Z,51.185844
2023-12-02T04:47:19.309Z,51.185852
2023-12-02T04:48:19.350Z,51.185795
2023-12-02T04:49:19.394Z,51.185757
2023-12-02T04:50:19.309Z,51.185692
2023-12-02T04:51:19.322Z,51.185776
2023-12-02T04:52:19.270Z,51.185806
2023-12-02T04:53:19.266Z,51.185802
2023-12-02T04:54:19.263Z,51.185799
2023-12-02T04:55:19.256Z,51.185810
2023-12-02T04:56:19.269Z,51.185783
2023-12-02T04:57:19.265Z,51.185692
2023-12-02T04:58:19.274Z,51.185806
2023-12-02T04:59:19.248Z,51.185860
2023-12-02T05:00:19.380Z,51.185791
2023-12-02T05:01:19.215Z,51.185822
2023-12-02T05:02:19.276Z,51.185833
2023-12-02T05:03:19.360Z,51.185818
2023-12-02T05:04:19.222Z,51.185883
2023-12-02T05:05:19.209Z,51.185852
2023-12-02T05:06:19.314Z,51.185822
2023-12-02T05:07:19.203Z,51.185787
2023-12-02T05:08:19.189Z,51.185814
2023-12-02T05:09:19.197Z,51.185795
2023-12-02T05:10:19.160Z,51.185814
2023-12-02T05:11:19.178Z,51.185802
2023-12-02T05:12:19.181Z,51.185741
2023-12-02T05:13:19.160Z,51.185741
2023-12-02T05:14:19.325Z,51.185753
2023-12-02T05:15:19.181Z,51.185623
2023-12-02T05:16:19.133Z,51.185684
2023-12-02T05:17:19.212Z,51.185760
2023-12-02T05:18:19.249Z,51.185875
2023-12-02T05:19:19.200Z,51.185963
2023-12-02T05:20:19.113Z,51.185703
2023-12-02T05:21:19.221Z,51.185974
2023-12-02T05:22:19.167Z,51.185879
2023-12-02T05:23:19.093Z,51.185860
2023-12-02T05:24:19.115Z,51.185776
2023-12-02T05:25:19.065Z,51.185772
2023-12-02T05:26:19.074Z,51.185787
2023-12-02T05:27:19.131Z,51.185757
2023-12-02T05:28:19.092Z,51.185829
2023-12-02T05:29:19.061Z,51.185829
2023-12-02T05:30:19.105Z,51.185890
2023-12-02T05:31:19.086Z,51.185886
2023-12-02T05:32:19.068Z,51.185802
2023-12-02T05:33:19.107Z,51.185772
2023-12-02T05:34:19.021Z,51.185890
2023-12-02T05:35:19.070Z,51.185810
2023-12-02T05:36:19.035Z,51.185814
2023-12-02T05:37:19.000Z,51.185818
2023-12-02T05:38:19.060Z,51.185799
2023-12-02T05:39:19.039Z,51.185844
2023-12-02T05:40:18.990Z,51.185863
2023-12-02T05:41:18.973Z,51.185986
2023-12-02T05:42:19.100Z,51.185863
2023-12-02T05:43:18.993Z,51.185848
2023-12-02T05:44:18.963Z,51.185863
2023-12-02T05:45:19.037Z,51.185844
2023-12-02T05:46:18.998Z,51.185841
2023-12-02T05:47:18.948Z,51.185825
2023-12-02T05:48:19.161Z,51.185848
2023-12-02T05:49:19.092Z,51.185856
2023-12-02T05:50:19.632Z,51.185837
2023-12-02T05:51:19.012Z,51.185886
2023-12-02T05:52:18.958Z,51.185921
2023-12-02T05:53:18.933Z,51.185925
2023-12-02T05:54:19.065Z,51.185875
2023-12-02T05:55:18.910Z,51.185856
2023-12-02T05:56:18.917Z,51.185856
2023-12-02T05:57:18.931Z,51.185890
2023-12-02T05:58:18.913Z,51.185856
2023-12-02T05:59:18.965Z,51.185825
2023-12-02T06:00:18.970Z,51.185829
2023-12-02T06:01:18.909Z,51.185867
2023-12-02T06:02:19.037Z,51.185837
2023-12-02T06:03:18.927Z,51.185852
2023-12-02T06:04:19.180Z,51.185814
2023-12-02T06:05:18.907Z,51.185947
2023-12-02T06:06:18.912Z,51.185848
2023-12-02T06:07:18.860Z,51.185928
2023-12-02T06:08:18.887Z,51.185883
2023-12-02T06:09:18.890Z,51.185867
2023-12-02T06:10:18.818Z,51.185822
2023-12-02T06:11:18.821Z,51.185787
2023-12-02T06:12:18.880Z,51.185776
2023-12-02T06:13:18.808Z,51.185848
2023-12-02T06:14:18.819Z,51.185780
2023-12-02T06:15:18.877Z,51.185894
2023-12-02T06:16:18.825Z,51.185909
2023-12-02T06:17:18.949Z,51.185806
2023-12-02T06:18:19.022Z,51.185757
2023-12-02T06:19:18.894Z,51.185818
2023-12-02T06:20:18.834Z,51.185802
2023-12-02T06:21:18.787Z,51.185848
2023-12-02T06:22:18.781Z,51.185879
2023-12-02T06:23:18.774Z,51.185867
2023-12-02T06:24:18.962Z,51.185837
2023-12-02T06:25:18.736Z,51.185780
2023-12-02T06:26:18.745Z,51.185772
2023-12-02T06:27:18.821Z,51.185886
2023-12-02T06:28:18.727Z,51.185848
2023-12-02T06:29:18.722Z,51.185852
2023-12-02T06:30:18.806Z,51.185806
2023-12-02T06:31:18.701Z,51.185783
2023-12-02T06:32:18.715Z,51.185818
2023-12-02T06:33:18.818Z,51.185818
2023-12-02T06:34:18.808Z,51.185883
2023-12-02T06:35:18.676Z,51.185905
2023-12-02T06:36:18.714Z,51.185856
2023-12-02T06:37:18.703Z,51.185814
2023-12-02T06:38:18.678Z,51.185814
2023-12-02T06:39:18.686Z,51.185802
2023-12-02T06:40:18.698Z,51.185852
2023-12-02T06:41:18.685Z,51.185848
2023-12-02T06:42:18.734Z,51.185764
2023-12-02T06:43:18.688Z,51.185749
2023-12-02T06:44:18.684Z,51.185757
2023-12-02T06:45:18.677Z,51.185822
2023-12-02T06:46:18.654Z,51.185837
2023-12-02T06:47:18.647Z,51.185856
2023-12-02T06:48:18.732Z,51.185791
2023-12-02T06:49:18.698Z,51.185822
2023-12-02T06:50:18.630Z,51.185841
2023-12-02T06:51:18.664Z,51.185768
2023-12-02T06:52:18.583Z,51.185818
2023-12-02T06:53:19.277Z,51.185871
2023-12-02T06:54:18.620Z,51.185867
2023-12-02T06:56:18.597Z,51.185806
2023-12-02T06:57:18.579Z,51.185791
2023-12-02T06:58:18.599Z,51.185757
2023-12-02T06:59:18.561Z,51.185795
2023-12-02T07:00:18.569Z,51.185776
2023-12-02T07:01:18.583Z,51.185806
2023-12-02T07:02:18.586Z,51.185825
2023-12-02T07:03:18.589Z,51.185780
2023-12-02T07:04:18.549Z,51.185734
2023-12-02T07:05:18.514Z,51.185730
2023-12-02T07:06:18.667Z,51.185696
2023-12-02T07:07:18.499Z,51.185764
2023-12-02T07:08:18.524Z,51.185780
2023-12-02T07:09:18.508Z,51.185768
2023-12-02T07:10:18.484Z,51.185780
2023-12-02T07:11:18.471Z,51.185734
2023-12-02T07:12:18.498Z,51.185749
2023-12-02T07:13:18.493Z,51.185764
2023-12-02T07:14:18.470Z,51.185783
2023-12-02T07:15:18.536Z,51.185757
2023-12-02T07:16:18.453Z,51.185768
2023-12-02T07:17:18.463Z,51.185738
2023-12-02T07:18:18.510Z,51.185749
2023-12-02T07:19:18.626Z,51.185749
2023-12-02T07:20:18.504Z,51.185745
2023-12-02T07:21:18.438Z,51.185760
2023-12-02T07:22:18.498Z,51.185772
2023-12-02T07:23:20.133Z,51.185799
2023-12-02T07:24:18.442Z,51.185810
2023-12-02T07:25:18.399Z,51.185802
2023-12-02T07:26:18.396Z,51.185776
2023-12-02T07:27:18.433Z,51.185791
2023-12-02T07:28:18.391Z,51.185814
2023-12-02T07:29:18.386Z,51.185791
2023-12-02T07:31:18.383Z,51.185787
2023-12-02T07:32:18.430Z,51.185806
2023-12-02T07:33:18.349Z,51.185806
2023-12-02T07:34:18.344Z,51.185818
2023-12-02T07:35:18.341Z,51.185879
2023-12-02T07:36:18.333Z,51.185791
2023-12-02T07:37:18.347Z,51.185799
2023-12-02T07:38:18.345Z,51.185822
2023-12-02T07:39:18.328Z,51.185825
2023-12-02T07:40:18.307Z,51.185760
2023-12-02T07:41:18.322Z,51.185776
2023-12-02T07:42:18.359Z,51.185810
2023-12-02T07:43:18.294Z,51.185707
2023-12-02T07:44:18.348Z,51.185776
2023-12-02T07:45:18.302Z,51.185772
2023-12-02T07:46:18.272Z,51.185715
2023-12-02T07:47:18.354Z,51.185638
2023-12-02T07:48:18.305Z,51.185707
2023-12-02T07:49:18.316Z,51.185741
2023-12-02T07:50:18.318Z,51.185772
2023-12-02T07:51:18.250Z,51.185772
2023-12-02T07:52:18.277Z,51.185825
2023-12-02T07:53:18.261Z,51.185814
2023-12-02T07:54:18.269Z,51.185806
2023-12-02T07:55:18.229Z,51.185764
2023-12-02T07:56:18.223Z,51.185780
2023-12-02T07:57:18.285Z,51.185787
2023-12-02T07:58:18.206Z,51.185822
2023-12-02T07:59:18.207Z,51.185814
2023-12-02T08:00:18.199Z,51.185802
2023-12-02T08:01:18.207Z,51.185802
2023-12-02T08:02:18.308Z,51.185814
2023-12-02T08:03:18.247Z,51.185833
2023-12-02T08:04:18.244Z,51.185783
2023-12-02T08:06:18.174Z,51.185791
2023-12-02T08:07:18.221Z,51.185818
2023-12-02T08:08:18.155Z,51.185879
2023-12-02T08:09:18.162Z,51.185844
2023-12-02T08:10:18.183Z,51.185799
2023-12-02T08:11:18.142Z,51.185825
2023-12-02T08:12:18.552Z,51.185883
2023-12-02T08:13:18.139Z,51.185875
2023-12-02T08:14:18.125Z,51.185879
2023-12-02T08:15:18.175Z,51.185856
2023-12-02T08:16:18.115Z,51.185890
2023-12-02T08:17:18.431Z,51.185902
2023-12-02T08:18:18.101Z,51.185944
2023-12-02T08:19:18.137Z,51.185932
2023-12-02T08:20:18.737Z,51.185944
2023-12-02T08:21:18.077Z,51.186039
2023-12-02T08:22:18.122Z,51.186054
2023-12-02T08:23:18.073Z,51.186115
2023-12-02T08:24:18.063Z,51.185898
2023-12-02T08:25:18.057Z,51.185925
2023-12-02T08:26:18.101Z,51.185982
2023-12-02T08:27:18.072Z,51.186069
2023-12-02T08:28:18.101Z,51.186119
2023-12-02T08:29:18.071Z,51.185913
2023-12-02T08:30:18.023Z,51.186073
2023-12-02T08:31:18.065Z,51.185982
2023-12-02T08:32:18.017Z,51.185997
2023-12-02T08:33:18.022Z,51.185902
2023-12-02T08:34:18.036Z,51.185822
2023-12-02T08:35:18.031Z,51.185753
2023-12-02T08:36:17.998Z,51.185810
2023-12-02T08:37:17.990Z,51.185799
2023-12-02T08:38:17.979Z,51.185802
2023-12-02T08:39:18.034Z,51.185791
2023-12-02T08:40:17.974Z,51.185837
2023-12-02T08:41:18.023Z,51.185856
2023-12-02T08:42:17.979Z,51.185753
2023-12-02T08:43:17.961Z,51.185921
2023-12-02T08:44:18.222Z,51.185963
2023-12-02T08:45:18.076Z,51.185989
2023-12-02T08:46:18.001Z,51.185841
2023-12-02T08:47:18.185Z,51.185802
2023-12-02T08:48:18.060Z,51.185802
2023-12-02T08:49:17.918Z,51.185707
2023-12-02T08:50:17.971Z,51.185600
2023-12-02T08:51:17.900Z,51.185654
2023-12-02T08:52:17.938Z,51.185776
2023-12-02T08:53:17.902Z,51.185753
2023-12-02T08:54:18.000Z,51.185738
2023-12-02T08:55:17.894Z,51.185738
2023-12-02T08:56:17.931Z,51.185726
2023-12-02T08:57:17.868Z,51.185680
2023-12-02T08:58:17.882Z,51.185783
2023-12-02T08:59:17.878Z,51.185715
2023-12-02T09:00:17.845Z,51.185726
2023-12-02T09:01:17.843Z,51.185730
2023-12-02T09:02:17.941Z,51.185589
2023-12-02T09:03:17.986Z,51.185474
2023-12-02T09:04:17.819Z,51.185650
2023-12-02T09:05:17.809Z,51.185764
2023-12-02T09:06:17.840Z,51.185661
2023-12-02T09:07:17.806Z,51.185787
2023-12-02T09:08:17.931Z,51.185764
2023-12-02T09:09:18.061Z,51.185760
2023-12-02T09:10:17.783Z,51.185696
2023-12-02T09:11:17.797Z,51.185738
2023-12-02T09:12:17.867Z,51.185730
2023-12-02T09:13:17.852Z,51.185654
2023-12-02T09:14:17.790Z,51.185658
2023-12-02T09:15:17.789Z,51.185658
2023-12-02T09:16:17.772Z,51.185696
2023-12-02T09:17:17.738Z,51.185658
2023-12-02T09:18:17.755Z,51.185703
2023-12-02T09:19:17.815Z,51.185680
2023-12-02T09:20:17.894Z,51.185726
2023-12-02T09:21:17.748Z,51.185696
2023-12-02T09:22:17.940Z,51.185661
2023-12-02T09:23:17.710Z,51.185741
2023-12-02T09:24:17.695Z,51.185658
2023-12-02T09:25:17.700Z,51.185661
2023-12-02T09:26:17.743Z,51.185631
2023-12-02T09:27:17.887Z,51.185570
2023-12-02T09:28:17.658Z,51.185665
2023-12-02T09:29:17.695Z,51.185669
2023-12-02T09:30:17.686Z,51.185696
2023-12-02T09:31:17.659Z,51.185738
2023-12-02T09:32:17.930Z,51.185635
2023-12-02T09:33:17.645Z,51.185600
2023-12-02T09:34:17.795Z,51.185352
2023-12-02T09:35:17.674Z,51.185524
2023-12-02T09:36:17.605Z,51.185593
2023-12-02T09:37:17.619Z,51.185631
2023-12-02T09:38:17.658Z,51.185631
2023-12-02T09:39:17.598Z,51.185650
2023-12-02T09:40:17.829Z,51.185638
2023-12-02T09:41:17.587Z,51.185650
2023-12-02T09:42:17.653Z,51.185665
2023-12-02T09:43:17.624Z,51.185627
2023-12-02T09:44:17.637Z,51.185608
2023-12-02T09:45:17.766Z,51.185635
2023-12-02T09:46:17.895Z,51.185684
2023-12-02T09:47:17.542Z,51.185703
2023-12-02T09:48:17.538Z,51.185669
2023-12-02T09:49:17.619Z,51.185669
2023-12-02T09:50:21.577Z,51.185673
2023-12-02T09:51:17.534Z,51.185692
2023-12-02T09:52:17.512Z,51.185680
2023-12-02T09:53:17.520Z,51.185719
2023-12-02T09:54:17.511Z,51.185638
2023-12-02T09:55:17.527Z,51.185692
2023-12-02T09:56:19.019Z,51.185688
2023-12-02T09:57:17.467Z,51.185699
2023-12-02T09:58:17.459Z,51.185703
2023-12-02T09:59:17.446Z,51.185703
2023-12-02T10:00:17.448Z,51.185719
2023-12-02T10:01:17.484Z,51.185749
2023-12-02T10:02:18.900Z,51.185719
2023-12-02T10:03:17.438Z,51.185677
2023-12-02T10:04:17.462Z,51.185734
2023-12-02T10:05:17.578Z,51.185799
2023-12-02T10:06:17.478Z,51.185844
2023-12-02T10:07:17.438Z,51.185982
2023-12-02T10:08:18.965Z,51.185818
2023-12-02T10:09:17.394Z,51.185837
2023-12-02T10:10:17.384Z,51.185802
2023-12-02T10:11:17.374Z,51.185768
2023-12-02T10:12:17.384Z,51.185787
2023-12-02T10:13:17.359Z,51.185802
2023-12-02T10:14:18.674Z,51.185822
2023-12-02T10:15:17.354Z,51.185829
2023-12-02T10:16:17.338Z,51.185856
2023-12-02T10:17:17.445Z,51.185837
2023-12-02T10:18:17.422Z,51.185867
2023-12-02T10:19:17.372Z,51.185848
2023-12-02T10:20:18.598Z,51.185841
2023-12-02T10:21:17.324Z,51.185875
2023-12-02T10:22:17.637Z,51.185818
2023-12-02T10:23:17.499Z,51.185848
2023-12-02T10:24:17.508Z,51.185818
2023-12-02T10:25:17.288Z,51.185810
2023-12-02T10:26:17.314Z,51.185848
2023-12-02T10:27:17.272Z,51.185852
2023-12-02T10:28:17.254Z,51.185883
2023-12-02T10:29:17.521Z,51.185856
2023-12-02T10:30:17.526Z,51.185867
2023-12-02T10:31:17.268Z,51.185833
2023-12-02T10:32:17.406Z,51.185825
2023-12-02T10:33:17.241Z,51.185837
2023-12-02T10:34:17.294Z,51.185837
2023-12-02T10:35:17.293Z,51.185825
2023-12-02T10:36:17.212Z,51.185894
2023-12-02T10:37:17.181Z,51.185856
2023-12-02T10:38:17.228Z,51.185833
2023-12-02T10:39:17.209Z,51.185871
2023-12-02T10:40:17.185Z,51.185905
2023-12-02T10:41:17.189Z,51.185905
2023-12-02T10:42:19.143Z,51.185856
2023-12-02T10:43:17.184Z,51.185825
2023-12-02T10:44:17.205Z,51.185871
2023-12-02T10:45:17.137Z,51.185822
2023-12-02T10:46:17.185Z,51.185833
2023-12-02T10:47:17.119Z,51.185795
2023-12-02T10:48:17.879Z,51.185848
2023-12-02T10:49:17.421Z,51.185818
2023-12-02T10:50:17.157Z,51.185867
2023-12-02T10:51:17.117Z,51.185883
2023-12-02T10:53:17.106Z,51.185886
2023-12-02T10:54:17.065Z,51.185844
2023-12-02T10:55:17.123Z,51.185871
2023-12-02T10:56:17.062Z,51.185856
2023-12-02T10:57:17.094Z,51.185841
2023-12-02T10:58:17.892Z,51.185856
2023-12-02T10:59:17.044Z,51.185871
2023-12-02T11:00:17.078Z,51.185871
2023-12-02T11:01:17.085Z,51.185863
2023-12-02T11:02:17.130Z,51.185871
2023-12-02T11:03:17.130Z,51.185875
2023-12-02T11:04:18.196Z,51.185863
2023-12-02T11:05:17.059Z,51.185890
2023-12-02T11:06:17.012Z,51.185898
2023-12-02T11:07:16.986Z,51.185894
2023-12-02T11:08:16.975Z,51.185886
2023-12-02T11:09:17.010Z,51.185883
2023-12-02T11:10:16.959Z,51.185875
2023-12-02T11:11:16.956Z,51.185856
2023-12-02T11:12:16.972Z,51.185856
2023-12-02T11:13:16.943Z,51.185852
2023-12-02T11:14:16.928Z,51.185818
2023-12-02T11:15:16.939Z,51.185848
2023-12-02T11:16:16.954Z,51.185879
2023-12-02T11:17:16.976Z,51.185898
2023-12-02T11:18:16.987Z,51.185902
2023-12-02T11:19:16.966Z,51.185879
2023-12-02T11:20:16.880Z,51.185856
2023-12-02T11:21:16.950Z,51.185860
2023-12-02T11:22:16.900Z,51.185879
2023-12-02T11:23:16.871Z,51.185883
2023-12-02T11:24:16.916Z,51.185848
2023-12-02T11:25:16.863Z,51.185760
2023-12-02T11:26:16.851Z,51.185863
2023-12-02T11:27:16.867Z,51.185886
2023-12-02T11:28:16.850Z,51.185837